createdAt,value
2019-04-21T00:00:45.629Z,53.00
2019-04-21T00:03:21.704Z,53.25
2019-04-21T00:06:04.533Z,53.25
2019-04-21T00:08:48.519Z,52.75
2019-04-21T00:11:09.672Z,58.75
2019-04-21T00:13:35.505Z,55.50
2019-04-21T00:15:57.373Z,58.25
2019-04-21T00:18:51.922Z,54.50
2019-04-21T00:21:24.374Z,56.75
2019-04-21T00:24:01.823Z,55.00
2019-04-21T00:26:35.182Z,57.25
2019-04-21T00:29:09.165Z,55.75
2019-04-21T00:31:33.654Z,55.25
2019-04-21T00:33:50.208Z,57.75
2019-04-21T00:36:25.965Z,57.00
2019-04-21T00:39:20.956Z,57.50
2019-04-21T00:41:45.029Z,55.75
2019-04-21T00:44:04.536Z,58.00
2019-04-21T00:46:42.781Z,61.75
2019-04-21T00:49:10.900Z,57.75
2019-04-21T00:52:11.345Z,58.75
2019-04-21T00:54:39.881Z,60.25
2019-04-21T00:57:00.719Z,59.25
2019-04-21T00:59:28.615Z,57.25
2019-04-21T01:01:53.881Z,55.25
2019-04-21T01:04:33.842Z,62.50
2019-04-21T01:07:02.868Z,55.25
2019-04-21T01:09:27.637Z,62.25
2019-04-21T01:12:03.634Z,60.75
2019-04-21T01:14:40.725Z,65.00
2019-04-21T01:17:11.127Z,62.00
2019-04-21T01:19:33.657Z,65.75
2019-04-21T01:21:45.618Z,63.00
2019-04-21T01:24:21.706Z,67.25
2019-04-21T01:26:59.610Z,68.75
2019-04-21T01:29:44.168Z,66.00
2019-04-21T01:32:12.888Z,70.75
2019-04-21T01:34:43.024Z,68.50
2019-04-21T01:37:04.601Z,71.00
2019-04-21T01:39:48.633Z,67.75
2019-04-21T01:42:15.779Z,72.25
2019-04-21T01:44:46.139Z,68.25
2019-04-21T01:47:13.968Z,70.00
2019-04-21T01:49:36.847Z,74.50
2019-04-21T01:52:24.605Z,72.75
2019-04-21T01:55:12.382Z,73.50
2019-04-21T01:57:57.592Z,72.75
2019-04-21T02:00:46.962Z,74.25
2019-04-21T02:03:34.716Z,78.50
2019-04-21T02:06:02.726Z,76.00
2019-04-21T02:08:24.268Z,76.75
2019-04-21T02:10:54.934Z,79.50
2019-04-21T02:13:18.912Z,82.25
2019-04-21T02:16:02.274Z,79.75
2019-04-21T02:18:24.314Z,75.00
2019-04-21T02:20:45.647Z,75.75
2019-04-21T02:23:35.049Z,77.50
2019-04-21T02:26:02.094Z,79.50
2019-04-21T02:28:40.471Z,80.75
2019-04-21T02:33:50.317Z,77.00
2019-04-21T02:36:22.765Z,77.75
2019-04-21T02:38:52.969Z,79.50
2019-04-21T02:41:05.785Z,84.25
2019-04-21T02:43:44.805Z,78.00
2019-04-21T02:46:25.674Z,80.50
2019-04-21T02:51:19.377Z,77.25
2019-04-21T02:54:32.229Z,84.00
2019-04-21T03:04:38.432Z,86.75
2019-04-21T03:07:13.256Z,88.75
2019-04-21T03:09:35.766Z,86.00
2019-04-21T03:12:23.597Z,84.75
2019-04-21T03:17:18.279Z,85.25
2019-04-21T03:22:21.007Z,84.00
2019-04-21T03:27:31.094Z,83.50
2019-04-21T03:29:54.389Z,85.50
2019-04-21T03:33:06.090Z,85.25
2019-04-21T03:40:06.867Z,89.75
2019-04-21T03:42:34.489Z,88.25
2019-04-21T03:44:57.393Z,87.75
2019-04-21T03:47:30.885Z,86.50
2019-04-21T03:50:05.244Z,90.25
2019-04-21T03:52:31.876Z,90.75
2019-04-21T04:04:03.707Z,88.50
2019-04-21T04:06:24.589Z,88.00
2019-04-21T04:09:19.009Z,90.50
2019-04-21T04:11:54.733Z,91.50
2019-04-21T04:16:59.336Z,93.50
2019-04-21T04:19:18.810Z,91.75
2019-04-21T04:21:57.526Z,94.00
2019-04-21T04:27:02.502Z,92.00
2019-04-21T04:29:20.489Z,91.00
2019-04-21T04:37:05.543Z,92.00
2019-04-21T04:39:48.816Z,95.50
2019-04-21T04:42:41.323Z,96.00
2019-04-21T05:05:07.362Z,98.50
2019-04-21T05:12:29.445Z,100.00
2019-04-21T05:15:04.144Z,100.00
2019-04-21T05:17:38.344Z,100.00
2019-04-21T05:20:08.609Z,102.00
2019-04-21T05:22:33.470Z,99.50
2019-04-21T05:24:55.396Z,101.00
2019-04-21T05:27:46.934Z,101.50
2019-04-21T05:33:18.747Z,103.50
2019-04-21T05:36:14.274Z,106.50
2019-04-21T05:39:06.487Z,96.00
2019-04-21T05:41:26.589Z,102.00
2019-04-21T05:44:13.224Z,102.50
2019-04-21T05:46:42.186Z,104.50
2019-04-21T05:49:20.594Z,101.75
2019-04-21T05:51:57.471Z,100.25
2019-04-21T05:54:40.825Z,100.25
2019-04-21T05:57:01.096Z,100.00
2019-04-21T05:59:56.038Z,102.00
2019-04-21T06:07:40.744Z,101.50
2019-04-21T06:10:12.330Z,101.75
2019-04-21T06:12:59.613Z,104.75
2019-04-21T06:15:30.418Z,101.50
2019-04-21T06:17:57.939Z,109.00
2019-04-21T06:20:35.483Z,101.00
2019-04-21T06:23:20.373Z,110.50
2019-04-21T06:26:52.104Z,105.00
2019-04-21T06:35:48.475Z,107.25
2019-04-21T06:38:13.823Z,102.25
2019-04-21T06:40:42.281Z,103.00
2019-04-21T06:43:23.957Z,99.00
2019-04-21T06:45:51.092Z,105.50
2019-04-21T06:48:18.547Z,108.50
2019-04-21T06:50:45.822Z,110.50
2019-04-21T06:53:22.121Z,105.00
2019-04-21T06:55:44.134Z,109.50
2019-04-21T06:58:10.406Z,113.00
2019-04-21T07:00:40.905Z,112.00
2019-04-21T07:03:20.750Z,99.00
2019-04-21T07:05:58.979Z,107.00
2019-04-21T07:08:28.795Z,101.50
2019-04-21T07:10:53.272Z,106.50
2019-04-21T07:13:22.016Z,106.00
2019-04-21T07:15:49.906Z,113.50
2019-04-21T07:18:32.647Z,101.25
2019-04-21T07:20:56.479Z,101.50
2019-04-21T07:23:27.928Z,99.25
2019-04-21T07:25:58.232Z,101.00
2019-04-21T07:28:25.516Z,108.50
2019-04-21T07:31:03.615Z,92.75
2019-04-21T07:33:50.666Z,102.50
2019-04-21T07:36:03.544Z,91.50
2019-04-21T07:38:35.544Z,92.50
2019-04-21T07:40:58.775Z,94.50
2019-04-21T07:43:30.056Z,92.75
2019-04-21T07:45:58.145Z,86.25
2019-04-21T07:48:49.755Z,88.75
2019-04-21T07:51:43.748Z,84.75
2019-04-21T07:54:18.682Z,86.25
2019-04-21T07:56:33.212Z,89.50
2019-04-21T07:59:34.215Z,88.00
2019-04-21T08:01:55.069Z,87.50
2019-04-21T08:04:42.454Z,82.50
2019-04-21T08:06:55.457Z,81.50
2019-04-21T08:09:33.022Z,88.00
2019-04-21T08:12:00.125Z,87.50
2019-04-21T08:14:35.502Z,83.75
2019-04-21T08:17:04.908Z,83.25
2019-04-21T08:19:31.018Z,84.50
2019-04-21T08:22:11.010Z,85.50
2019-04-21T08:24:34.723Z,81.50
2019-04-21T08:27:10.887Z,85.50
2019-04-21T08:29:39.483Z,84.75
2019-04-21T08:32:18.098Z,80.50
2019-04-21T08:34:42.928Z,73.75
2019-04-21T08:37:15.118Z,76.50
2019-04-21T08:39:49.629Z,77.25
2019-04-21T08:42:15.544Z,76.75
2019-04-21T08:44:47.962Z,73.50
2019-04-21T08:47:19.078Z,74.00
2019-04-21T08:49:55.369Z,74.75
2019-04-21T08:52:39.399Z,69.00
2019-04-21T08:54:57.025Z,67.00
2019-04-21T08:57:46.408Z,64.75
2019-04-21T09:00:16.274Z,64.50
2019-04-21T09:03:06.698Z,60.50
2019-04-21T09:05:40.997Z,61.25
2019-04-21T09:08:13.751Z,61.25
2019-04-21T09:10:44.424Z,65.00
2019-04-21T09:13:04.584Z,63.75
2019-04-21T09:15:39.646Z,63.50
2019-04-21T09:18:07.487Z,59.00
2019-04-21T09:20:46.131Z,60.75
2019-04-21T09:23:18.141Z,60.25
2019-04-21T09:25:46.555Z,56.25
2019-04-21T09:28:10.891Z,53.75
2019-04-21T09:30:26.353Z,55.50
2019-04-21T09:32:58.210Z,53.50
2019-04-21T09:35:27.082Z,53.00
2019-04-21T09:38:03.014Z,53.00
2019-04-21T09:40:33.684Z,50.75
2019-04-21T09:43:03.260Z,50.75
2019-04-21T09:45:28.922Z,50.00
2019-04-21T09:48:04.471Z,47.00
2019-04-21T09:50:30.103Z,43.00
2019-04-21T09:53:10.461Z,47.25
2019-04-21T09:55:36.448Z,47.25
2019-04-21T09:58:10.153Z,44.25
2019-04-21T10:00:43.550Z,46.25
2019-04-21T10:03:08.407Z,46.75
2019-04-21T10:05:33.859Z,41.25
2019-04-21T10:08:03.669Z,40.50
2019-04-21T10:10:34.116Z,42.25
2019-04-21T10:13:05.067Z,41.00
2019-04-21T10:15:35.424Z,41.75
2019-04-21T10:18:10.794Z,41.75
2019-04-21T10:20:40.745Z,42.75
2019-04-21T10:23:11.400Z,40.00
2019-04-21T10:25:40.999Z,41.50
2019-04-21T10:28:12.784Z,40.00
2019-04-21T10:30:42.631Z,43.00
2019-04-21T10:33:12.942Z,39.50
2019-04-21T10:35:43.375Z,40.00
2019-04-21T10:38:22.707Z,39.00
2019-04-21T10:40:43.648Z,40.75
2019-04-21T10:46:12.919Z,39.25
2019-04-21T10:48:43.178Z,36.75
2019-04-21T10:51:13.059Z,39.75
2019-04-21T10:53:43.475Z,39.25
2019-04-21T10:56:21.863Z,36.75
2019-04-21T10:58:46.408Z,39.00
2019-04-21T11:01:23.161Z,38.50
2019-04-21T11:04:27.830Z,36.75
2019-04-21T11:06:57.086Z,38.00
2019-04-21T11:09:31.790Z,38.25
2019-04-21T11:12:02.064Z,38.75
2019-04-21T11:14:31.524Z,38.25
2019-04-21T11:17:00.811Z,34.25
2019-04-21T11:19:30.697Z,35.75
2019-04-21T11:22:00.859Z,36.25
2019-04-21T11:24:31.376Z,36.00
2019-04-21T11:27:01.847Z,38.00
2019-04-21T11:29:31.096Z,38.00
2019-04-21T11:32:00.977Z,38.50
2019-04-21T11:34:31.455Z,37.25
2019-04-21T11:37:01.876Z,34.25
2019-04-21T11:39:44.525Z,37.50
2019-04-21T11:42:12.079Z,36.00
2019-04-21T11:44:41.722Z,38.50
2019-04-21T11:47:18.585Z,36.25
2019-04-21T11:49:47.689Z,41.25
2019-04-21T11:52:18.866Z,38.00
2019-04-21T11:54:48.973Z,39.25
2019-04-21T11:57:24.610Z,38.50
2019-04-21T11:59:49.242Z,40.50
2019-04-21T12:02:19.424Z,39.50
2019-04-21T12:04:49.544Z,41.75
2019-04-21T12:07:19.950Z,41.50
2019-04-21T12:09:48.996Z,42.00
2019-04-21T12:12:19.113Z,44.75
2019-04-21T12:14:48.259Z,42.25
2019-04-21T12:17:18.345Z,42.25
2019-04-21T12:19:48.559Z,43.25
2019-04-21T12:22:22.187Z,41.00
2019-04-21T12:24:49.075Z,40.50
2019-04-21T12:27:18.292Z,40.50
2019-04-21T12:29:48.000Z,41.50
2019-04-21T12:32:36.457Z,40.25
2019-04-21T12:35:06.198Z,41.50
2019-04-21T12:37:35.433Z,39.25
2019-04-21T12:40:06.357Z,40.50
2019-04-21T12:42:38.754Z,38.50
2019-04-21T12:45:07.569Z,41.00
2019-04-21T12:47:38.009Z,40.25
2019-04-21T12:50:08.707Z,40.00
2019-04-21T12:52:37.955Z,37.75
2019-04-21T12:55:07.537Z,39.75
2019-04-21T12:57:37.234Z,36.00
2019-04-21T13:00:11.155Z,36.50
2019-04-21T13:02:40.451Z,39.50
2019-04-21T13:05:09.912Z,39.75
2019-04-21T13:07:41.492Z,41.00
2019-04-21T13:10:12.591Z,38.00
2019-04-21T13:12:41.873Z,35.00
2019-04-21T13:15:11.522Z,35.75
2019-04-21T13:17:44.018Z,38.00
2019-04-21T13:20:12.057Z,36.25
2019-04-21T13:22:41.959Z,35.25
2019-04-21T13:25:11.840Z,34.50
2019-04-21T13:27:43.019Z,37.50
2019-04-21T13:30:14.890Z,35.75
2019-04-21T13:32:47.056Z,36.25
2019-04-21T13:35:21.232Z,38.00
2019-04-21T13:37:52.301Z,35.50
2019-04-21T13:41:17.756Z,38.75
2019-04-21T13:43:33.059Z,35.00
2019-04-21T13:46:03.691Z,37.00
2019-04-21T13:48:34.612Z,35.25
2019-04-21T13:51:04.993Z,36.50
2019-04-21T13:53:34.940Z,36.00
2019-04-21T13:56:06.683Z,35.50
2019-04-21T13:58:36.068Z,36.75
2019-04-21T14:02:11.273Z,34.00
2019-04-21T14:04:41.203Z,34.00
2019-04-21T14:07:10.551Z,34.00
2019-04-21T14:09:47.690Z,33.75
2019-04-21T14:12:11.716Z,34.25
2019-04-21T14:14:42.378Z,30.50
2019-04-21T14:17:12.780Z,31.25
2019-04-21T14:19:41.965Z,32.00
2019-04-21T14:22:13.811Z,28.00
2019-04-21T14:24:43.754Z,28.25
2019-04-21T14:27:14.248Z,29.75
2019-04-21T14:29:43.893Z,32.00
2019-04-21T14:32:16.117Z,31.75
2019-04-21T14:37:20.420Z,28.00
2019-04-21T14:39:57.811Z,26.25
2019-04-21T14:42:20.554Z,28.75
2019-04-21T14:44:51.104Z,28.25
2019-04-21T14:47:36.323Z,26.75
2019-04-21T14:50:26.247Z,25.00
2019-04-21T14:53:29.821Z,30.25
2019-04-21T14:55:59.504Z,26.00
2019-04-21T14:58:28.718Z,26.75
2019-04-21T15:01:04.186Z,31.25
2019-04-21T15:03:34.252Z,29.75
2019-04-21T15:06:07.502Z,25.75
2019-04-21T15:08:37.404Z,26.25
2019-04-21T15:11:07.100Z,30.00
2019-04-21T15:13:37.764Z,28.50
2019-04-21T15:16:08.930Z,28.00
2019-04-21T15:18:39.025Z,26.75
2019-04-21T15:21:08.388Z,25.25
2019-04-21T15:23:38.218Z,28.00
2019-04-21T15:26:08.310Z,23.75
2019-04-21T15:28:39.104Z,26.75
2019-04-21T15:31:12.795Z,25.75
2019-04-21T15:33:41.212Z,27.75
2019-04-21T15:36:11.237Z,29.75
2019-04-21T15:38:40.523Z,27.25
2019-04-21T15:41:12.593Z,24.50
2019-04-21T15:43:42.572Z,23.75
2019-04-21T15:46:13.056Z,27.75
2019-04-21T15:48:42.634Z,23.25
2019-04-21T15:51:14.068Z,22.75
2019-04-21T15:53:43.895Z,27.00
2019-04-21T15:56:26.844Z,27.00
2019-04-21T15:59:18.839Z,25.75
2019-04-21T16:02:08.390Z,26.50
2019-04-21T16:04:38.940Z,28.50
2019-04-21T16:07:08.492Z,26.75
2019-04-21T16:09:38.063Z,31.00
2019-04-21T16:12:09.691Z,30.00
2019-04-21T16:14:41.008Z,30.50
2019-04-21T16:17:12.400Z,30.25
2019-04-21T16:19:43.901Z,31.75
2019-04-21T16:22:16.827Z,28.25
2019-04-21T16:24:54.626Z,34.50
2019-04-21T16:27:27.563Z,32.75
2019-04-21T16:30:03.901Z,29.75
2019-04-21T16:32:36.742Z,28.50
2019-04-21T16:35:10.655Z,29.00
2019-04-21T16:37:41.623Z,32.50
2019-04-21T16:40:13.764Z,30.00
2019-04-21T16:42:47.975Z,28.75
2019-04-21T16:45:21.008Z,29.00
2019-04-21T16:47:53.748Z,33.00
2019-04-21T16:50:26.081Z,28.25
2019-04-21T16:53:10.266Z,26.00
2019-04-21T16:55:48.972Z,31.00
2019-04-21T16:58:28.901Z,28.50
2019-04-21T17:01:08.302Z,27.00
2019-04-21T17:03:34.603Z,28.75
2019-04-21T17:06:11.203Z,27.00
2019-04-21T17:08:42.929Z,27.50
2019-04-21T17:11:20.666Z,27.00
2019-04-21T17:13:47.280Z,29.25
2019-04-21T17:16:42.093Z,28.75
2019-04-21T17:19:00.484Z,30.75
2019-04-21T17:21:21.786Z,28.25
2019-04-21T17:23:52.461Z,26.50
2019-04-21T17:26:23.770Z,28.25
2019-04-21T17:28:54.310Z,26.50
2019-04-21T17:31:26.675Z,28.50
2019-04-21T17:34:01.980Z,27.25
2019-04-21T17:36:29.086Z,28.00
2019-04-21T17:39:00.229Z,27.00
2019-04-21T17:41:37.656Z,25.00
2019-04-21T17:44:02.554Z,30.25
2019-04-21T17:46:40.812Z,26.25
2019-04-21T17:49:03.365Z,29.50
2019-04-21T17:51:53.672Z,28.75
2019-04-21T17:54:33.833Z,26.25
2019-04-21T17:57:33.473Z,26.00
2019-04-21T17:59:58.864Z,24.25
2019-04-21T18:02:17.546Z,25.75
2019-04-21T18:04:51.028Z,24.00
2019-04-21T18:07:21.575Z,25.00
2019-04-21T18:10:03.306Z,24.00
2019-04-21T18:12:32.287Z,24.50
2019-04-21T18:14:53.035Z,25.00
2019-04-21T18:17:16.233Z,23.75
2019-04-21T18:19:49.181Z,23.75
2019-04-21T18:22:40.293Z,27.00
2019-04-21T18:25:15.054Z,24.50
2019-04-21T18:27:42.727Z,22.75
2019-04-21T18:30:40.213Z,26.25
2019-04-21T18:35:59.729Z,33.00
2019-04-21T18:39:13.967Z,37.50
2019-04-21T18:41:23.678Z,31.00
2019-04-21T18:44:28.137Z,29.50
2019-04-21T18:47:06.933Z,27.50
2019-04-21T18:49:24.861Z,24.25
2019-04-21T18:52:06.839Z,29.50
2019-04-21T18:54:47.311Z,29.00
2019-04-21T18:57:12.922Z,26.75
2019-04-21T18:59:36.155Z,27.75
2019-04-21T19:02:09.598Z,28.75
2019-04-21T19:04:37.590Z,30.00
2019-04-21T19:07:20.010Z,28.75
2019-04-21T19:12:36.652Z,28.75
2019-04-21T19:14:55.094Z,30.00
2019-04-21T19:17:42.639Z,31.00
2019-04-21T19:20:07.693Z,31.00
2019-04-21T19:22:34.697Z,28.75
2019-04-21T19:25:17.043Z,25.50
2019-04-21T19:27:33.733Z,33.00
2019-04-21T19:30:13.565Z,32.75
2019-04-21T19:32:39.438Z,31.25
2019-04-21T19:34:48.977Z,30.25
2019-04-21T19:37:23.900Z,24.75
2019-04-21T19:40:01.819Z,30.50
2019-04-21T19:42:34.595Z,31.25
2019-04-21T19:45:06.084Z,28.25
2019-04-21T19:47:45.066Z,27.25
2019-04-21T19:50:11.219Z,27.75
2019-04-21T19:52:36.104Z,31.75
2019-04-21T19:54:55.002Z,27.00
2019-04-21T19:57:25.238Z,31.50
2019-04-21T19:59:58.549Z,30.00
2019-04-21T20:02:26.675Z,31.50
2019-04-21T20:05:03.097Z,32.75
2019-04-21T20:07:46.516Z,33.50
2019-04-21T20:10:23.260Z,31.25
2019-04-21T20:12:45.280Z,31.25
2019-04-21T20:15:25.558Z,29.00
2019-04-21T20:17:47.847Z,32.75
2019-04-21T20:20:03.748Z,30.75
2019-04-21T20:22:38.620Z,31.25
2019-04-21T20:25:11.601Z,35.50
2019-04-21T20:27:46.900Z,31.75
2019-04-21T20:30:25.998Z,30.75
2019-04-21T20:32:55.971Z,32.25
2019-04-21T20:35:38.392Z,38.00
2019-04-21T20:37:57.727Z,31.75
2019-04-21T20:40:27.782Z,32.50
2019-04-21T20:43:03.468Z,33.75
2019-04-21T20:45:55.771Z,36.25
2019-04-21T20:47:53.911Z,32.25
2019-04-21T20:50:35.365Z,33.50
2019-04-21T20:53:11.340Z,36.50
2019-04-21T20:55:35.449Z,33.00
2019-04-21T20:58:05.707Z,33.75
2019-04-21T21:00:54.620Z,34.75
2019-04-21T21:03:12.121Z,33.00
2019-04-21T21:05:39.539Z,30.50
2019-04-21T21:08:17.991Z,31.50
2019-04-21T21:10:38.576Z,34.75
2019-04-21T21:16:01.219Z,33.50
2019-04-21T21:20:49.805Z,37.00
2019-04-21T21:23:14.454Z,40.75
2019-04-21T21:25:58.990Z,39.25
2019-04-21T21:28:22.615Z,47.75
2019-04-21T21:30:52.924Z,44.50
2019-04-21T21:33:22.171Z,48.00
2019-04-21T21:35:56.532Z,46.25
2019-04-21T21:38:31.209Z,43.50
2019-04-21T21:40:55.313Z,44.75
2019-04-21T21:43:19.454Z,49.25
2019-04-21T21:45:50.287Z,48.75
2019-04-21T21:48:36.668Z,48.25
2019-04-21T21:50:56.693Z,51.00
2019-04-21T21:53:21.529Z,49.75
2019-04-21T21:55:48.674Z,48.00
2019-04-21T21:58:25.310Z,45.75
2019-04-21T22:00:58.450Z,54.25
2019-04-21T22:03:31.762Z,51.50
2019-04-21T22:06:02.197Z,50.75
2019-04-21T22:08:28.270Z,51.00
2019-04-21T22:10:57.520Z,47.00
2019-04-21T22:13:36.005Z,50.75
2019-04-21T22:16:04.842Z,49.50
2019-04-21T22:18:43.614Z,51.00
2019-04-21T22:21:14.222Z,52.00
2019-04-21T22:23:43.856Z,48.25
2019-04-21T22:26:03.202Z,54.50
2019-04-21T22:28:33.669Z,47.25
2019-04-21T22:31:08.154Z,53.25
2019-04-21T22:33:44.308Z,50.25
2019-04-21T22:36:18.523Z,53.25
2019-04-21T22:38:50.948Z,52.25
2019-04-21T22:41:19.241Z,52.75
2019-04-21T22:43:43.896Z,51.75
2019-04-21T22:46:12.343Z,54.75
2019-04-21T22:48:40.970Z,52.50
2019-04-21T22:51:20.425Z,52.25
2019-04-21T22:53:46.514Z,54.25
2019-04-21T22:56:18.493Z,52.00
2019-04-21T22:58:46.106Z,53.00
2019-04-21T23:01:20.102Z,58.50
2019-04-21T23:03:49.239Z,59.00
2019-04-21T23:06:22.058Z,57.25
2019-04-21T23:08:49.469Z,53.50
2019-04-21T23:11:37.456Z,55.50
2019-04-21T23:14:05.110Z,60.75
2019-04-21T23:16:35.723Z,53.75
2019-04-21T23:19:20.040Z,57.00
2019-04-21T23:21:53.726Z,53.50
2019-04-21T23:24:31.644Z,55.50
2019-04-21T23:26:50.744Z,57.75
2019-04-21T23:29:38.763Z,56.50
2019-04-21T23:31:58.161Z,59.25
2019-04-21T23:34:13.383Z,61.00
2019-04-21T23:36:48.227Z,58.00
2019-04-21T23:39:17.025Z,59.50
2019-04-21T23:41:47.880Z,63.00
2019-04-21T23:44:15.166Z,59.00
2019-04-21T23:46:45.824Z,59.75
2019-04-21T23:49:27.169Z,58.75
2019-04-21T23:51:54.647Z,59.75
2019-04-21T23:54:17.465Z,63.75
2019-04-21T23:56:47.812Z,61.00
2019-04-21T23:59:18.059Z,65.25
